METAR Data
IDs: Format: Raw Decoded Include TAF

Data at: 1735 UTC 03 Jun 2020

KLXT 031653Z AUTO 24010G18KT 10SM CLR 31/22 A2988 RMK AO2 SLP106 T03060217
KLXT 031553Z AUTO 24011KT 10SM CLR 29/21 A2989 RMK AO2 SLP112 T02940211
KLXT 031453Z AUTO 24012KT 10SM CLR 28/21 A2991 RMK AO2 SLP117 T02830206 50004
KLXT 031353Z AUTO 24012KT 10SM SCT080 27/21 A2992 RMK AO2 SLP122 T02670206
KLXT 031253Z AUTO 23014G20KT 10SM CLR 26/20 A2991 RMK AO2 SLP116 T02560200
KLXT 031153Z AUTO 22013G21KT 10SM CLR 24/20 A2990 RMK AO2 SLP112 T02390200 10244 20228 58008
KLXT 031053Z AUTO 22012KT 10SM CLR 23/20 A2991 RMK AO2 SLP116 T02330200
KLXT 030953Z AUTO 22012KT 10SM CLR 23/20 A2991 RMK AO2 SLP118 T02280200
KLXT 030853Z AUTO 21013KT 10SM CLR 23/20 A2992 RMK AO2 SLP121 T02330200 58013
KLXT 030753Z AUTO 21011KT 10SM CLR 23/19 A2994 RMK AO2 SLP127 T02330194
KLXT 030653Z AUTO 21009KT 10SM CLR 23/19 A2995 RMK AO2 SLP130 T02330194
KLXT 030553Z AUTO 22009KT 10SM CLR 24/19 A2996 RMK AO2 SLP135 T02440194 10300 20244 403170194 51003
KLXT 030453Z AUTO 21012KT 10SM CLR 25/19 A2996 RMK AO2 SLP133 T02500189
KLXT 030353Z AUTO 20009KT 10SM CLR 26/18 A2997 RMK AO2 SLP137 T02560178
KLXT 030253Z AUTO 21009KT 10SM CLR 26/18 A2995 RMK AO2 SLP133 T02610183 53005
KLXT 030153Z AUTO 20009KT 10SM CLR 27/18 A2994 RMK AO2 SLP128 T02720183
KLXT 030053Z AUTO 20012G19KT 10SM CLR 28/19 A2994 RMK AO2 SLP129 T02830189
KLXT 022353Z AUTO 21013KT 10SM CLR 30/18 A2994 RMK AO2 SLP127 T03000183 10317 20300 58010
KLXT 022253Z AUTO 21011G21KT 10SM CLR 31/19 A2995 RMK AO2 SLP133 T03060189
KLXT 022153Z AUTO 22012KT 10SM CLR 31/19 A2996 RMK AO2 SLP135 T03110194
KLXT 022053Z AUTO 22014KT 10SM CLR 32/19 A2997 RMK AO2 SLP137 T03170194 56014
KLXT 021953Z AUTO 20017G23KT 10SM CLR 31/19 A2998 RMK AO2 SLP141 T03110194
KLXT 021853Z AUTO 22014G22KT 10SM CLR 31/19 A3000 RMK AO2 PK WND 20028/1819 SLP146 T03060194
KLXT 021753Z AUTO 22011G20KT 10SM CLR 30/19 A3001 RMK AO2 SLP151 T03000194 10300 20206 58015
KLXT 021653Z AUTO 22013KT 10SM CLR 29/18 A3003 RMK AO2 SLP158 T02890183
KLXT 021553Z AUTO 22016KT 10SM CLR 27/18 A3004 RMK AO2 SLP162 T02720178
KLXT 021453Z AUTO 24015KT 10SM CLR 26/17 A3005 RMK AO2 SLP168 T02610172 50005
KLXT 021353Z AUTO 21011KT 10SM CLR 24/17 A3006 RMK AO2 SLP170 T02440167
KLXT 021253Z AUTO 22008KT 10SM CLR 23/16 A3005 RMK AO2 SLP167 T02280161
KLXT 021153Z AUTO 21010KT 10SM CLR 21/16 A3004 RMK AO2 SLP163 T02060156 10228 20194 51008
KLXT 021053Z AUTO 21008KT 10SM CLR 19/14 A3003 RMK AO2 SLP162 T01940144
KLXT 020953Z AUTO 22011KT 10SM CLR 21/15 A3002 RMK AO2 SLP157 T02060150
KLXT 020853Z AUTO 22011KT 10SM CLR 21/15 A3002 RMK AO2 SLP154 T02110150 58010
KLXT 020753Z AUTO 22011KT 10SM CLR 22/14 A3002 RMK AO2 SLP157 T02170144
KLXT 020653Z AUTO 21011KT 10SM CLR 22/14 A3004 RMK AO2 SLP161 T02220144
KLXT 020553Z AUTO 21012KT 10SM CLR 23/14 A3005 RMK AO2 SLP165 T02280144 10283 20228 403000200 58003